Time;durP1;ratioP1;P1;durP2;ratioP2;P2;SDS_P1;SDS_P2;PMS_P1;PMS_P2;Temp;Humidity;BMP_temperature;BMP_pressure;BME280_temperature;BME280_humidity;BME280_pressure;Samples;Min_cycle;Max_cycle;Signal;HPM_P1;HPM_P2
2021/07/05 00:05:32;;;;;;;3.42;2.67;;;22.30;68.10;;;;;;20737093;28;20066;-78
2021/07/05 00:15:33;;;;;;;2.85;2.55;;;22.20;68.20;;;;;;20735789;28;20061;-79
2021/07/05 00:25:34;;;;;;;4.88;3.22;;;22.20;68.20;;;;;;20702068;28;20113;-78
2021/07/05 00:35:34;;;;;;;2.78;2.22;;;22.20;69.00;;;;;;20733839;28;20449;-78
2021/07/05 00:45:35;;;;;;;3.17;2.42;;;22.20;68.40;;;;;;20699338;28;20450;-79
2021/07/05 00:55:36;;;;;;;2.80;2.22;;;22.20;68.50;;;;;;20700584;28;20045;-79
2021/07/05 01:05:37;;;;;;;3.45;2.25;;;22.20;68.50;;;;;;20699522;28;20084;-78
2021/07/05 01:15:37;;;;;;;4.13;2.90;;;22.20;68.50;;;;;;20698742;28;20084;-78
2021/07/05 01:25:39;;;;;;;3.50;2.43;;;22.20;68.60;;;;;;20714593;28;20173;-77
2021/07/05 01:35:39;;;;;;;5.07;3.00;;;22.20;68.70;;;;;;20681509;28;20480;-77
2021/07/05 01:45:40;;;;;;;4.63;3.17;;;22.10;68.70;;;;;;20680745;28;20255;-77
2021/07/05 01:55:41;;;;;;;3.97;2.85;;;22.10;68.70;;;;;;20711555;28;20061;-77
2021/07/05 02:05:42;;;;;;;2.92;2.17;;;22.10;68.70;;;;;;20711419;28;20054;-77
2021/07/05 02:15:42;;;;;;;5.03;2.28;;;22.10;68.80;;;;;;20710793;28;20066;-78
2021/07/05 02:25:43;;;;;;;3.00;2.33;;;22.10;68.80;;;;;;20725741;28;20423;-77
2021/07/05 02:35:43;;;;;;;3.97;2.70;;;22.10;68.80;;;;;;20709576;28;20037;-77
2021/07/05 02:45:44;;;;;;;3.13;2.50;;;22.10;68.90;;;;;;20723505;28;20053;-77
2021/07/05 02:55:45;;;;;;;3.58;2.60;;;22.10;68.90;;;;;;20691902;28;20076;-77
2021/07/05 03:05:46;;;;;;;4.27;2.33;;;22.10;69.50;;;;;;20690858;28;20046;-77
2021/07/05 03:15:47;;;;;;;3.97;2.75;;;22.10;68.90;;;;;;20707944;28;20300;-77
2021/07/05 03:25:48;;;;;;;3.83;2.70;;;22.10;68.90;;;;;;20691089;28;20103;-77
2021/07/05 03:35:49;;;;;;;4.17;2.80;;;22.10;69.00;;;;;;20707120;28;20129;-77
2021/07/05 03:45:50;;;;;;;2.83;2.15;;;22.10;69.00;;;;;;20690784;28;20335;-77
2021/07/05 03:55:50;;;;;;;3.33;2.72;;;22.00;68.90;;;;;;20706442;28;20457;-78
2021/07/05 04:05:52;;;;;;;2.50;2.00;;;22.00;68.90;;;;;;20723306;28;20468;-77
2021/07/05 04:15:53;;;;;;;3.85;2.40;;;22.10;69.00;;;;;;20732109;28;20432;-77
2021/07/05 04:25:54;;;;;;;4.25;2.42;;;22.00;69.00;;;;;;20687422;28;20120;-77
2021/07/05 04:35:55;;;;;;;4.10;2.67;;;22.00;69.00;;;;;;20703228;28;20045;-77
2021/07/05 04:45:56;;;;;;;3.33;2.65;;;22.00;69.00;;;;;;20701524;28;20041;-77
2021/07/05 04:55:57;;;;;;;2.80;2.00;;;22.00;69.00;;;;;;20749440;28;20034;-77
2021/07/05 05:05:58;;;;;;;2.88;1.92;;;22.00;69.00;;;;;;20734898;28;20060;-77
2021/07/05 05:15:58;;;;;;;2.93;2.17;;;22.00;69.00;;;;;;20813424;28;20034;-77
2021/07/05 05:25:59;;;;;;;2.67;2.08;;;22.00;69.00;;;;;;20696760;28;20339;-75
2021/07/05 05:35:59;;;;;;;2.47;1.90;;;22.00;69.00;;;;;;20703040;28;20049;-75
2021/07/05 05:46:01;;;;;;;2.53;1.80;;;22.00;69.00;;;;;;20692849;28;20034;-76
2021/07/05 05:56:02;;;;;;;2.30;1.60;;;22.00;69.00;;;;;;20738556;28;20038;-76
2021/07/05 06:06:03;;;;;;;3.28;2.50;;;22.00;69.00;;;;;;20691255;28;20069;-80
2021/07/05 06:16:03;;;;;;;3.00;2.13;;;22.00;69.00;;;;;;20711546;28;20062;-81
2021/07/05 06:26:04;;;;;;;3.20;1.92;;;22.00;69.00;;;;;;20707878;28;20038;-81
2021/07/05 06:36:05;;;;;;;4.27;1.90;;;22.00;69.00;;;;;;20733062;28;20037;-82
2021/07/05 06:46:06;;;;;;;2.13;1.80;;;22.00;69.00;;;;;;20757905;28;20833;-81
2021/07/05 06:56:12;;;;;;;2.33;1.67;;;22.00;68.90;;;;;;20719245;28;20042;-81
2021/07/05 07:06:12;;;;;;;2.42;1.90;;;22.00;68.90;;;;;;20722666;28;20643;-81
2021/07/05 07:16:15;;;;;;;1.80;1.42;;;22.00;68.90;;;;;;20777699;28;20026;-82
2021/07/05 07:26:16;;;;;;;2.35;1.52;;;22.10;68.80;;;;;;20743179;28;20026;-81
2021/07/05 07:36:17;;;;;;;1.65;1.38;;;22.20;68.80;;;;;;20722164;28;20053;-80
2021/07/05 07:46:18;;;;;;;1.60;1.20;;;22.30;68.90;;;;;;20725326;28;20153;-79
2021/07/05 07:56:19;;;;;;;2.05;1.20;;;22.10;68.60;;;;;;20810855;28;20037;-82
2021/07/05 08:06:19;;;;;;;1.95;1.38;;;22.20;68.70;;;;;;20710924;28;20036;-80
2021/07/05 08:16:20;;;;;;;2.38;1.55;;;22.30;68.70;;;;;;20701903;28;20034;-82
2021/07/05 08:26:38;;;;;;;1.13;1.00;;;22.20;68.70;;;;;;21144593;27;20402;-81
2021/07/05 08:36:40;;;;;;;1.95;1.45;;;22.30;68.60;;;;;;21152624;27;20031;-81
2021/07/05 08:46:41;;;;;;;2.42;1.40;;;22.30;68.60;;;;;;21127092;28;20075;-83
2021/07/05 08:56:42;;;;;;;3.13;1.25;;;22.40;68.60;;;;;;21106319;28;20142;-82
2021/07/05 09:07:01;;;;;;;1.33;1.10;;;22.40;68.50;;;;;;21150236;27;20036;-84
2021/07/05 09:17:08;;;;;;;1.58;1.00;;;22.40;68.40;;;;;;21120770;27;20039;-85
2021/07/05 09:27:10;;;;;;;5.18;1.70;;;22.40;68.30;;;;;;21563152;22;20059;-80
2021/07/05 09:37:22;;;;;;;4.40;1.05;;;22.40;68.30;;;;;;21020170;28;20035;-77
2021/07/05 09:47:26;;;;;;;4.63;1.23;;;22.40;68.20;;;;;;20999147;28;20028;-77
2021/07/05 09:57:39;;;;;;;2.03;1.23;;;22.40;68.00;;;;;;21060072;28;20119;-80
2021/07/05 10:08:07;;;;;;;2.70;1.20;;;22.40;67.90;;;;;;20998111;28;20037;-79
2021/07/05 10:18:07;;;;;;;2.78;1.20;;;22.40;67.80;;;;;;21033737;28;20078;-77
2021/07/05 10:28:09;;;;;;;1.98;1.02;;;22.40;67.70;;;;;;21048249;28;20072;-76
2021/07/05 10:38:20;;;;;;;2.80;1.02;;;22.40;67.70;;;;;;21011451;28;20036;-80
2021/07/05 10:48:30;;;;;;;1.70;0.80;;;22.40;68.40;;;;;;21059262;28;20482;-74
2021/07/05 10:58:32;;;;;;;1.73;1.02;;;22.40;67.60;;;;;;21063131;28;20043;-73
2021/07/05 11:08:49;;;;;;;1.92;0.88;;;22.50;67.60;;;;;;21008742;28;20036;-75
2021/07/05 11:18:49;;;;;;;1.30;0.90;;;22.40;67.60;;;;;;21051380;28;20042;-75
2021/07/05 11:29:15;;;;;;;1.60;0.80;;;22.40;67.60;;;;;;21047543;28;20057;-73
2021/07/05 11:39:29;;;;;;;3.35;1.00;;;22.50;67.70;;;;;;21024240;28;20111;-74
2021/07/05 11:49:34;;;;;;;1.98;1.08;;;22.50;67.70;;;;;;21003330;28;20032;-74
2021/07/05 11:59:37;;;;;;;1.80;1.08;;;22.50;67.80;;;;;;21073220;28;20085;-83
2021/07/05 12:09:38;;;;;;;1.85;1.05;;;22.40;68.00;;;;;;20999762;28;20033;-75
2021/07/05 12:19:41;;;;;;;3.10;0.85;;;22.40;68.40;;;;;;20990819;28;20044;-81
2021/07/05 12:29:55;;;;;;;1.30;0.77;;;22.40;68.60;;;;;;21034979;28;20035;-82
2021/07/05 12:39:57;;;;;;;3.38;0.70;;;22.30;68.70;;;;;;21025434;28;20032;-79
2021/07/05 12:49:58;;;;;;;2.22;0.52;;;22.30;68.70;;;;;;21043604;28;20070;-79
2021/07/05 13:00:07;;;;;;;1.50;0.70;;;22.40;69.10;;;;;;21019707;28;20058;-76
2021/07/05 13:10:08;;;;;;;0.90;0.40;;;22.40;69.40;;;;;;21039145;28;20485;-80
2021/07/05 13:20:18;;;;;;;0.45;0.45;;;22.40;69.40;;;;;;21043340;28;20126;-80
2021/07/05 13:30:20;;;;;;;1.50;0.60;;;22.40;69.30;;;;;;21064687;28;20477;-85
2021/07/05 13:40:21;;;;;;;1.38;0.60;;;22.40;69.10;;;;;;21076039;28;20465;-82
2021/07/05 13:50:37;;;;;;;1.50;0.50;;;22.50;68.90;;;;;;21069513;28;20127;-78
2021/07/05 14:00:51;;;;;;;1.10;0.70;;;22.60;68.50;;;;;;21080639;28;20132;-74
2021/07/05 14:11:11;;;;;;;1.27;0.75;;;22.60;68.20;;;;;;21037343;28;20032;-75
2021/07/05 14:21:13;;;;;;;1.05;0.38;;;22.70;68.10;;;;;;21079669;28;20040;-76
2021/07/05 14:31:14;;;;;;;0.55;0.47;;;22.70;68.00;;;;;;21043734;28;20387;-75
2021/07/05 14:41:15;;;;;;;0.63;0.47;;;22.70;67.90;;;;;;21059938;28;20036;-76
2021/07/05 14:51:15;;;;;;;0.47;0.45;;;22.70;67.80;;;;;;21076316;28;20046;-77
2021/07/05 15:01:17;;;;;;;0.35;0.35;;;22.70;67.70;;;;;;21041129;28;20048;-77
2021/07/05 15:11:19;;;;;;;0.25;0.25;;;22.80;67.90;;;;;;21026636;28;20490;-76
2021/07/05 15:21:24;;;;;;;1.00;0.50;;;22.70;67.70;;;;;;20990039;28;20099;-76
2021/07/05 15:31:24;;;;;;;0.87;0.43;;;22.70;67.80;;;;;;20986424;28;20123;-73
2021/07/05 15:41:25;;;;;;;0.50;0.40;;;22.60;67.70;;;;;;20999823;28;20470;-78
2021/07/05 15:51:26;;;;;;;0.60;0.35;;;22.60;67.80;;;;;;20954191;28;20432;-80
2021/07/05 16:01:28;;;;;;;0.35;0.30;;;22.60;67.80;;;;;;20979209;28;20040;-78
2021/07/05 16:11:28;;;;;;;0.50;0.40;;;22.60;67.90;;;;;;20975422;28;20078;-75
2021/07/05 16:21:29;;;;;;;0.75;0.40;;;22.50;67.90;;;;;;20989982;28;20123;-76
2021/07/05 16:31:36;;;;;;;0.60;0.50;;;22.50;68.10;;;;;;21030342;28;20103;-76
2021/07/05 16:41:37;;;;;;;0.50;0.40;;;22.50;68.20;;;;;;21057960;28;20044;-76
2021/07/05 16:51:49;;;;;;;1.08;0.43;;;22.60;68.10;;;;;;21049808;28;20116;-76
2021/07/05 17:01:50;;;;;;;0.50;0.40;;;22.80;68.10;;;;;;20993180;28;20041;-76
2021/07/05 17:11:51;;;;;;;1.30;0.35;;;22.90;67.70;;;;;;21019415;28;20037;-77
2021/07/05 17:21:51;;;;;;;2.28;0.75;;;23.00;67.70;;;;;;21006483;28;20486;-77
2021/07/05 17:31:52;;;;;;;1.43;0.50;;;23.00;67.80;;;;;;21040900;28;20050;-78
2021/07/05 17:41:53;;;;;;;1.00;0.50;;;22.90;68.00;;;;;;21064558;28;20040;-79
2021/07/05 17:51:53;;;;;;;0.32;0.30;;;22.90;68.20;;;;;;21062416;28;20085;-81
2021/07/05 18:01:55;;;;;;;0.45;0.35;;;22.80;68.20;;;;;;20993538;28;20120;-77
2021/07/05 18:11:55;;;;;;;0.63;0.40;;;22.80;68.30;;;;;;20848780;28;20036;-74
2021/07/05 18:21:57;;;;;;;0.40;0.40;;;22.70;68.40;;;;;;20958805;28;20048;-77
2021/07/05 18:31:58;;;;;;;0.73;0.55;;;22.70;68.50;;;;;;20951734;28;20040;-75
2021/07/05 18:41:59;;;;;;;2.45;0.60;;;22.70;68.50;;;;;;21013936;28;20194;-76
2021/07/05 18:51:59;;;;;;;2.17;0.52;;;22.70;68.50;;;;;;21018547;28;20164;-76
2021/07/05 19:02:06;;;;;;;0.57;0.50;;;22.60;68.50;;;;;;21071984;28;20486;-76
2021/07/05 19:12:07;;;;;;;1.48;0.50;;;22.60;68.50;;;;;;21072196;28;20036;-76
2021/07/05 19:22:07;;;;;;;0.65;0.40;;;22.60;68.60;;;;;;21045933;28;20391;-76
2021/07/05 19:32:08;;;;;;;0.75;0.55;;;22.60;68.60;;;;;;21053686;28;20126;-75
2021/07/05 19:42:09;;;;;;;0.70;0.60;;;22.50;68.60;;;;;;21071380;28;20090;-76
2021/07/05 19:52:09;;;;;;;0.40;0.40;;;22.60;68.70;;;;;;21055643;28;20038;-77
2021/07/05 20:02:10;;;;;;;0.35;0.35;;;22.50;68.70;;;;;;21037439;28;20044;-77
2021/07/05 20:12:10;;;;;;;0.63;0.52;;;22.50;68.70;;;;;;21047604;28;20035;-76
2021/07/05 20:22:11;;;;;;;0.50;0.50;;;22.50;68.80;;;;;;21043796;28;20405;-75
2021/07/05 20:32:12;;;;;;;1.83;1.00;;;22.50;68.80;;;;;;21052746;28;20036;-76
2021/07/05 20:42:14;;;;;;;1.27;0.60;;;22.40;68.80;;;;;;21034905;28;20039;-76
2021/07/05 20:52:14;;;;;;;1.40;0.73;;;22.40;68.80;;;;;;21051410;28;20111;-77
2021/07/05 21:02:15;;;;;;;1.40;0.70;;;22.40;68.90;;;;;;21009854;28;20558;-76
2021/07/05 21:12:16;;;;;;;1.85;0.70;;;22.40;68.90;;;;;;20971734;28;20378;-76
2021/07/05 21:22:17;;;;;;;1.25;0.63;;;22.40;68.90;;;;;;21014838;28;20127;-76
2021/07/05 21:32:19;;;;;;;0.88;0.80;;;22.40;68.90;;;;;;21079660;28;20115;-76
2021/07/05 21:42:20;;;;;;;1.17;0.65;;;22.40;69.00;;;;;;21066104;28;20039;-77
2021/07/05 21:52:20;;;;;;;1.13;0.60;;;22.30;69.00;;;;;;21048491;28;20112;-77
2021/07/05 22:02:22;;;;;;;0.80;0.60;;;22.30;69.00;;;;;;21064514;28;20032;-76
2021/07/05 22:12:23;;;;;;;0.88;0.60;;;22.30;69.00;;;;;;21063332;28;20067;-75
2021/07/05 22:22:24;;;;;;;1.33;0.70;;;22.30;69.00;;;;;;21078898;28;20067;-75
2021/07/05 22:32:24;;;;;;;1.08;0.70;;;22.40;69.10;;;;;;21045278;28;20039;-76
2021/07/05 22:42:25;;;;;;;2.13;0.55;;;22.20;69.00;;;;;;21060891;28;20390;-75
2021/07/05 22:52:26;;;;;;;0.63;0.60;;;22.30;69.10;;;;;;21078807;28;20397;-77
2021/07/05 23:02:26;;;;;;;0.98;0.45;;;22.30;69.10;;;;;;21076642;28;20032;-76
2021/07/05 23:12:27;;;;;;;0.70;0.55;;;22.20;69.70;;;;;;21042121;28;20054;-75
2021/07/05 23:22:28;;;;;;;1.00;0.70;;;22.20;69.10;;;;;;21048545;28;20429;-78
2021/07/05 23:32:28;;;;;;;0.77;0.63;;;22.20;69.10;;;;;;21073725;28;20529;-75
2021/07/05 23:42:29;;;;;;;0.30;0.30;;;22.20;69.10;;;;;;21073339;28;20609;-75
2021/07/05 23:52:29;;;;;;;0.70;0.55;;;22.20;69.10;;;;;;21055280;28;20505;-76
